createdAt,value
2022-09-14T00:01:44.447Z,99332.02
2022-09-14T00:04:19.748Z,99331.83
2022-09-14T00:06:49.146Z,99329.10
2022-09-14T00:09:24.673Z,99331.08
2022-09-14T00:11:53.111Z,99328.38
2022-09-14T00:14:21.625Z,99326.20
2022-09-14T00:16:51.000Z,99325.33
2022-09-14T00:19:26.869Z,99327.50
2022-09-14T00:21:58.703Z,99324.39
2022-09-14T00:24:32.615Z,99324.41
2022-09-14T00:27:02.772Z,99324.34
2022-09-14T00:29:31.914Z,99314.61
2022-09-14T00:32:00.256Z,99317.54
2022-09-14T00:34:28.922Z,99314.02
2022-09-14T00:36:57.196Z,99317.67
2022-09-14T00:39:25.735Z,99314.08
2022-09-14T00:41:54.783Z,99315.80
2022-09-14T00:44:22.944Z,99314.78
2022-09-14T00:46:55.453Z,99309.02
2022-09-14T00:49:42.276Z,99310.27
2022-09-14T00:52:30.934Z,99304.44
2022-09-14T00:55:12.449Z,99306.08
2022-09-14T00:57:46.497Z,99309.26
2022-09-14T01:00:21.751Z,99308.93
2022-09-14T01:02:50.129Z,99307.39
2022-09-14T01:05:19.324Z,99309.27
2022-09-14T01:08:41.943Z,99311.77
2022-09-14T01:11:24.032Z,99314.72
2022-09-14T01:14:19.859Z,99311.95
2022-09-14T01:17:15.028Z,99309.67
2022-09-14T01:20:11.026Z,99309.09
2022-09-14T01:23:03.938Z,99304.89
2022-09-14T01:26:19.622Z,99302.20
2022-09-14T01:28:57.571Z,99299.50
2022-09-14T01:32:02.312Z,99303.34
2022-09-14T01:35:01.751Z,99309.37
2022-09-14T01:37:45.394Z,99297.67
2022-09-14T01:40:22.191Z,99298.82
2022-09-14T01:43:01.341Z,99312.05
2022-09-14T01:45:32.218Z,99309.28
2022-09-14T01:48:08.894Z,99311.16
2022-09-14T01:50:46.078Z,99310.02
2022-09-14T01:53:25.717Z,99306.88
2022-09-14T01:56:05.307Z,99299.59
2022-09-14T01:58:45.221Z,99299.20
2022-09-14T02:01:22.281Z,99296.39
2022-09-14T02:03:58.013Z,99284.25
2022-09-14T02:06:35.543Z,99285.17
2022-09-14T02:09:09.208Z,99283.59
2022-09-14T02:11:38.581Z,99281.55
2022-09-14T02:14:07.035Z,99282.20
2022-09-14T02:16:35.880Z,99274.75
2022-09-14T02:19:04.607Z,99279.89
2022-09-14T02:21:33.561Z,99279.57
2022-09-14T02:24:02.864Z,99282.88
2022-09-14T02:26:32.324Z,99285.10
2022-09-14T02:29:00.731Z,99277.96
2022-09-14T02:31:46.599Z,99275.89
2022-09-14T02:34:53.014Z,99272.21
2022-09-14T02:37:46.207Z,99271.30
2022-09-14T02:40:33.739Z,99271.92
2022-09-14T02:43:47.236Z,99270.52
2022-09-14T02:46:24.367Z,99269.97
2022-09-14T02:49:21.126Z,99268.89
2022-09-14T02:51:52.384Z,99269.39
2022-09-14T02:54:50.782Z,99269.39
2022-09-14T02:57:19.080Z,99265.05
2022-09-14T02:59:47.354Z,99261.73
2022-09-14T03:02:15.748Z,99258.52
2022-09-14T03:04:44.390Z,99262.21
2022-09-14T03:07:12.638Z,99266.05
2022-09-14T03:09:40.993Z,99270.81
2022-09-14T03:12:09.294Z,99273.79
2022-09-14T03:14:37.551Z,99270.52
2022-09-14T03:17:06.856Z,99262.49
2022-09-14T03:19:35.090Z,99254.40
2022-09-14T03:22:03.408Z,99255.68
2022-09-14T03:24:32.513Z,99266.86
2022-09-14T03:27:00.762Z,99266.49
2022-09-14T03:29:29.098Z,99267.83
2022-09-14T03:31:57.859Z,99263.80
2022-09-14T03:34:26.176Z,99265.59
2022-09-14T03:36:54.556Z,99263.95
2022-09-14T03:39:23.120Z,99267.48
2022-09-14T03:41:51.407Z,99264.64
2022-09-14T03:44:19.829Z,99255.73
2022-09-14T03:46:48.157Z,99257.91
2022-09-14T03:49:16.680Z,99256.52
2022-09-14T03:51:44.947Z,99258.45
2022-09-14T03:54:13.182Z,99259.53
2022-09-14T03:56:42.044Z,99257.84
2022-09-14T03:59:10.444Z,99253.17
2022-09-14T04:01:38.835Z,99247.63
2022-09-14T04:04:07.906Z,99244.82
2022-09-14T04:06:36.192Z,99252.77
2022-09-14T04:09:04.585Z,99254.45
2022-09-14T04:11:34.807Z,99258.66
2022-09-14T04:14:05.086Z,99258.55
2022-09-14T04:16:33.606Z,99255.09
2022-09-14T04:19:01.893Z,99253.94
2022-09-14T04:21:30.340Z,99256.05
2022-09-14T04:24:16.157Z,99253.70
2022-09-14T04:26:46.241Z,99254.83
2022-09-14T04:29:14.717Z,99260.04
2022-09-14T04:31:43.227Z,99260.25
2022-09-14T04:34:16.296Z,99261.02
2022-09-14T04:36:44.549Z,99261.30
2022-09-14T04:39:14.007Z,99256.79
2022-09-14T04:41:42.353Z,99251.95
2022-09-14T04:44:11.289Z,99253.66
2022-09-14T04:46:46.089Z,99249.27
2022-09-14T04:49:18.807Z,99256.47
2022-09-14T04:51:47.892Z,99259.70
2022-09-14T04:54:18.199Z,99258.48
2022-09-14T04:56:46.674Z,99258.34
2022-09-14T04:59:15.543Z,99262.83
2022-09-14T05:01:48.172Z,99264.03
2022-09-14T05:04:18.290Z,99269.66
2022-09-14T05:06:46.659Z,99268.76
2022-09-14T05:09:18.228Z,99263.65
2022-09-14T05:11:46.783Z,99260.94
2022-09-14T05:14:15.351Z,99259.59
2022-09-14T05:16:44.526Z,99264.58
2022-09-14T05:19:18.167Z,99262.03
2022-09-14T05:21:47.155Z,99262.61
2022-09-14T05:24:18.450Z,99263.56
2022-09-14T05:26:47.575Z,99261.26
2022-09-14T05:29:18.871Z,99259.24
2022-09-14T05:31:47.631Z,99258.94
2022-09-14T05:34:17.829Z,99260.82
2022-09-14T05:36:46.664Z,99261.94
2022-09-14T05:39:16.931Z,99269.13
2022-09-14T05:41:50.200Z,99267.05
2022-09-14T05:44:18.736Z,99264.27
2022-09-14T05:46:47.041Z,99263.84
2022-09-14T05:49:15.338Z,99262.61
2022-09-14T05:51:43.597Z,99267.52
2022-09-14T05:54:12.333Z,99269.38
2022-09-14T05:56:40.634Z,99260.36
2022-09-14T05:59:10.906Z,99260.95
2022-09-14T06:01:39.432Z,99259.64
2022-09-14T06:04:10.324Z,99257.56
2022-09-14T06:06:49.188Z,99252.56
2022-09-14T06:09:24.523Z,99254.81
2022-09-14T06:11:53.279Z,99249.70
2022-09-14T06:14:21.566Z,99254.98
2022-09-14T06:16:49.914Z,99250.81
2022-09-14T06:19:18.433Z,99255.30
2022-09-14T06:21:46.853Z,99258.86
2022-09-14T06:24:15.275Z,99257.86
2022-09-14T06:26:43.740Z,99252.59
2022-09-14T06:29:12.049Z,99258.83
2022-09-14T06:31:41.506Z,99258.17
2022-09-14T06:34:09.791Z,99256.10
2022-09-14T06:36:38.068Z,99256.34
2022-09-14T06:39:06.612Z,99256.79
2022-09-14T06:41:34.923Z,99256.34
2022-09-14T06:44:03.297Z,99253.50
2022-09-14T06:46:34.084Z,99253.45
2022-09-14T06:49:08.159Z,99257.44
2022-09-14T06:51:42.099Z,99253.27
2022-09-14T06:54:13.150Z,99256.67
2022-09-14T06:56:47.799Z,99255.83
2022-09-14T06:59:18.286Z,99259.14
2022-09-14T07:01:46.816Z,99260.10
2022-09-14T07:04:16.146Z,99256.23
2022-09-14T07:06:48.356Z,99257.00
2022-09-14T07:09:19.431Z,99251.35
2022-09-14T07:11:47.897Z,99249.27
2022-09-14T07:14:16.643Z,99248.98
2022-09-14T07:16:44.960Z,99251.40
2022-09-14T07:19:14.869Z,99251.83
2022-09-14T07:21:45.251Z,99250.31
2022-09-14T07:24:15.006Z,99251.16
2022-09-14T07:26:43.609Z,99245.80
2022-09-14T07:29:18.954Z,99250.45
2022-09-14T07:31:54.089Z,99249.36
2022-09-14T07:34:23.883Z,99243.06
2022-09-14T07:36:52.120Z,99242.70
2022-09-14T07:39:20.500Z,99238.14
2022-09-14T07:41:49.073Z,99242.57
2022-09-14T07:44:17.949Z,99244.39
2022-09-14T07:46:47.665Z,99242.52
2022-09-14T07:49:17.291Z,99235.92
2022-09-14T07:51:46.059Z,99229.86
2022-09-14T07:54:16.967Z,99231.64
2022-09-14T07:56:46.003Z,99233.20
2022-09-14T07:59:34.942Z,99234.65
2022-09-14T08:02:07.503Z,99231.44
2022-09-14T08:04:36.310Z,99233.48
2022-09-14T08:07:05.599Z,99238.36
2022-09-14T08:09:34.123Z,99240.20
2022-09-14T08:12:03.234Z,99240.33
2022-09-14T08:14:31.774Z,99245.58
2022-09-14T08:17:00.945Z,99247.09
2022-09-14T08:19:29.382Z,99242.38
2022-09-14T08:21:58.007Z,99241.36
2022-09-14T08:24:26.533Z,99245.08
2022-09-14T08:26:55.356Z,99245.93
2022-09-14T08:29:23.669Z,99246.46
2022-09-14T08:31:53.112Z,99246.46
2022-09-14T08:34:54.799Z,99243.89
2022-09-14T08:37:23.020Z,99241.80
2022-09-14T08:39:51.997Z,99240.79
2022-09-14T08:42:25.165Z,99245.36
2022-09-14T08:45:00.453Z,99241.66
2022-09-14T08:47:36.765Z,99244.24
2022-09-14T08:50:20.200Z,99240.50
2022-09-14T08:52:54.885Z,99235.48
2022-09-14T08:55:49.026Z,99237.52
2022-09-14T08:58:49.313Z,99234.84
2022-09-14T09:01:57.112Z,99235.49
2022-09-14T09:04:43.771Z,99232.27
2022-09-14T09:07:45.840Z,99236.15
2022-09-14T09:10:37.581Z,99232.27
2022-09-14T09:13:11.825Z,99238.32
2022-09-14T09:15:49.618Z,99234.64
2022-09-14T09:24:37.525Z,99235.31
2022-09-14T09:27:14.809Z,99232.70
2022-09-14T09:29:44.558Z,99228.78
2022-09-14T09:32:21.132Z,99234.36
2022-09-14T09:34:50.069Z,99230.48
2022-09-14T09:37:23.119Z,99226.33
2022-09-14T09:39:51.529Z,99226.67
2022-09-14T09:42:28.338Z,99223.55
2022-09-14T09:45:05.952Z,99222.61
2022-09-14T09:47:40.306Z,99224.55
2022-09-14T09:50:14.760Z,99222.98
2022-09-14T09:53:03.223Z,99220.07
2022-09-14T09:55:40.138Z,99215.59
2022-09-14T09:58:39.024Z,99216.84
2022-09-14T10:01:26.389Z,99217.02
2022-09-14T10:04:24.668Z,99211.64
2022-09-14T10:06:54.492Z,99206.85
2022-09-14T10:09:29.487Z,99207.57
2022-09-14T10:12:02.205Z,99211.87
2022-09-14T10:14:37.496Z,99214.16
2022-09-14T10:17:23.561Z,99211.88
2022-09-14T10:19:54.902Z,99207.61
2022-09-14T10:22:29.684Z,99209.39
2022-09-14T10:25:03.012Z,99201.89
2022-09-14T10:27:46.130Z,99198.75
2022-09-14T10:30:43.775Z,99203.34
2022-09-14T10:33:15.734Z,99203.48
2022-09-14T10:36:20.900Z,99203.56
2022-09-14T10:39:16.580Z,99205.35
2022-09-14T10:41:55.601Z,99205.96
2022-09-14T10:44:57.785Z,99199.81
2022-09-14T10:47:49.441Z,99201.80
2022-09-14T10:50:47.276Z,99202.33
2022-09-14T10:53:41.398Z,99198.50
2022-09-14T10:56:23.259Z,99190.72
2022-09-14T11:02:40.848Z,99189.32
2022-09-14T11:05:30.431Z,99188.19
2022-09-14T11:08:23.260Z,99183.94
2022-09-14T11:11:26.634Z,99181.32
2022-09-14T11:14:31.384Z,99182.73
2022-09-14T11:17:30.177Z,99176.97
2022-09-14T11:20:26.653Z,99174.49
2022-09-14T11:23:09.995Z,99175.95
2022-09-14T11:28:33.187Z,99178.33
2022-09-14T11:31:22.254Z,99177.90
2022-09-14T11:34:21.654Z,99173.55
2022-09-14T11:37:05.733Z,99170.38
2022-09-14T11:39:51.538Z,99167.75
2022-09-14T11:42:36.446Z,99161.71
2022-09-14T11:45:49.287Z,99161.98
2022-09-14T11:48:44.100Z,99162.73
2022-09-14T11:51:20.727Z,99163.61
2022-09-14T11:53:49.828Z,99162.02
2022-09-14T11:56:32.634Z,99159.17
2022-09-14T11:59:07.294Z,99156.34
2022-09-14T12:01:39.203Z,99149.25
2022-09-14T12:04:17.865Z,99146.47
2022-09-14T12:06:54.154Z,99149.62
2022-09-14T12:09:24.306Z,99154.81
2022-09-14T12:12:00.554Z,99150.06
2022-09-14T12:14:36.646Z,99142.05
2022-09-14T12:23:29.861Z,99143.36
2022-09-14T12:26:10.372Z,99143.77
2022-09-14T12:28:48.988Z,99142.42
2022-09-14T12:34:32.069Z,99148.80
2022-09-14T12:37:41.154Z,99152.35
2022-09-14T12:40:38.813Z,99150.35
2022-09-14T12:43:35.402Z,99141.87
2022-09-14T12:49:36.640Z,99125.69
2022-09-14T12:55:39.871Z,99114.33
2022-09-14T12:58:26.342Z,99125.16
2022-09-14T13:01:19.405Z,99125.20
2022-09-14T13:03:50.980Z,99125.42
2022-09-14T13:06:21.801Z,99112.98
2022-09-14T13:08:56.828Z,99108.18
2022-09-14T13:11:37.164Z,99102.77
2022-09-14T13:14:05.778Z,99107.34
2022-09-14T13:16:47.421Z,99108.89
2022-09-14T13:19:31.210Z,99103.01
2022-09-14T13:22:02.462Z,99097.61
2022-09-14T13:24:46.074Z,99091.61
2022-09-14T13:27:37.220Z,99087.95
2022-09-14T13:30:21.163Z,99077.95
2022-09-14T13:32:54.433Z,99069.08
2022-09-14T13:35:38.545Z,99067.42
2022-09-14T13:38:18.906Z,99071.30
2022-09-14T13:40:49.911Z,99066.60
2022-09-14T13:43:20.316Z,99063.95
2022-09-14T13:45:50.582Z,99057.38
2022-09-14T13:48:20.369Z,99060.98
2022-09-14T13:50:52.104Z,99055.06
2022-09-14T13:53:40.391Z,99049.81
2022-09-14T13:56:33.709Z,99047.05
2022-09-14T13:59:22.439Z,99038.90
2022-09-14T14:02:00.661Z,99041.09
2022-09-14T14:04:39.138Z,99033.40
2022-09-14T14:07:13.739Z,99036.99
2022-09-14T14:09:55.394Z,99037.77
2022-09-14T14:12:32.855Z,99041.50
2022-09-14T14:15:42.922Z,99040.63
2022-09-14T14:18:38.603Z,99042.83
2022-09-14T14:21:29.461Z,99032.92
2022-09-14T14:24:26.769Z,99034.38
2022-09-14T14:26:57.250Z,99031.59
2022-09-14T14:29:25.900Z,99035.98
2022-09-14T14:31:56.497Z,99038.70
2022-09-14T14:34:29.943Z,99037.05
2022-09-14T14:36:58.217Z,99032.89
2022-09-14T14:39:26.526Z,99032.27
2022-09-14T14:41:55.943Z,99027.66
2022-09-14T14:44:28.318Z,99030.13
2022-09-14T14:46:56.813Z,99024.30
2022-09-14T14:49:25.237Z,99023.70
2022-09-14T14:51:53.819Z,99024.05
2022-09-14T14:54:22.173Z,99015.91
2022-09-14T14:56:52.076Z,99013.52
2022-09-14T14:59:20.352Z,99016.96
2022-09-14T15:01:51.051Z,99016.39
2022-09-14T15:04:20.813Z,99017.11
2022-09-14T15:06:50.842Z,99019.20
2022-09-14T15:09:29.840Z,99014.85
2022-09-14T15:11:58.413Z,99013.48
2022-09-14T15:14:47.749Z,99014.17
2022-09-14T15:17:57.861Z,99014.70
2022-09-14T15:20:27.437Z,99020.61
2022-09-14T15:22:57.295Z,99023.50
2022-09-14T15:25:26.674Z,99024.56
2022-09-14T15:27:54.966Z,99025.36
2022-09-14T15:30:23.558Z,99020.60
2022-09-14T15:32:51.992Z,99012.27
2022-09-14T15:35:20.394Z,99007.32
2022-09-14T15:37:48.804Z,99004.20
2022-09-14T15:40:17.470Z,99006.86
2022-09-14T15:42:47.850Z,99007.88
2022-09-14T15:45:17.764Z,99006.59
2022-09-14T15:47:47.036Z,99013.79
2022-09-14T15:50:16.002Z,99018.00
2022-09-14T15:52:44.460Z,99017.98
2022-09-14T15:55:13.028Z,99014.98
2022-09-14T15:57:41.435Z,99013.84
2022-09-14T16:00:13.305Z,99011.19
2022-09-14T16:02:42.473Z,99008.14
2022-09-14T16:05:13.014Z,99008.66
2022-09-14T16:07:41.620Z,99007.96
2022-09-14T16:10:10.299Z,99002.52
2022-09-14T16:12:38.598Z,99004.10
2022-09-14T16:15:08.048Z,98999.98
2022-09-14T16:17:36.389Z,99000.70
2022-09-14T16:20:05.577Z,99001.17
2022-09-14T16:22:33.819Z,98997.90
2022-09-14T16:25:02.192Z,98997.05
2022-09-14T16:27:31.034Z,98995.13
2022-09-14T16:29:59.378Z,98991.09
2022-09-14T16:32:27.744Z,98987.82
2022-09-14T16:34:56.578Z,98993.66
2022-09-14T16:37:25.022Z,98991.64
2022-09-14T16:39:54.514Z,98993.88
2022-09-14T16:42:23.005Z,98995.37
2022-09-14T16:44:51.389Z,98999.56
2022-09-14T16:47:19.833Z,98997.78
2022-09-14T16:49:48.069Z,98991.88
2022-09-14T16:52:16.407Z,98987.39
2022-09-14T16:54:44.713Z,98985.80
2022-09-14T16:57:14.638Z,98985.29
2022-09-14T16:59:43.451Z,98981.86
2022-09-14T17:02:11.829Z,98980.70
2022-09-14T17:04:40.267Z,98983.77
2022-09-14T17:07:08.604Z,98983.33
2022-09-14T17:09:37.124Z,98983.67
2022-09-14T17:12:06.861Z,98984.58
2022-09-14T17:14:35.374Z,98981.80
2022-09-14T17:17:03.747Z,98988.79
2022-09-14T17:19:33.588Z,98983.86
2022-09-14T17:22:03.935Z,98983.55
2022-09-14T17:24:32.233Z,98983.84
2022-09-14T17:27:00.474Z,98985.92
2022-09-14T17:29:28.852Z,98983.84
2022-09-14T17:31:57.157Z,98985.23
2022-09-14T17:34:25.713Z,98986.02
2022-09-14T17:36:54.019Z,98987.36
2022-09-14T17:39:22.362Z,98987.85
2022-09-14T17:41:51.228Z,98985.48
2022-09-14T17:44:20.086Z,98986.42
2022-09-14T17:46:53.116Z,98986.54
2022-09-14T17:49:23.135Z,98987.14
2022-09-14T17:51:51.974Z,98983.02
2022-09-14T17:54:20.811Z,98986.33
2022-09-14T17:56:49.772Z,98984.84
2022-09-14T17:59:20.920Z,98987.98
2022-09-14T18:01:50.498Z,98988.27
2022-09-14T18:04:19.341Z,98984.52
2022-09-14T18:06:50.118Z,98985.23
2022-09-14T18:09:22.633Z,98978.80
2022-09-14T18:11:54.661Z,98979.40
2022-09-14T18:14:24.382Z,98978.98
2022-09-14T18:16:52.766Z,98976.75
2022-09-14T18:19:21.287Z,98975.52
2022-09-14T18:21:52.616Z,98971.47
2022-09-14T18:24:21.835Z,98967.73
2022-09-14T18:26:50.740Z,98961.98
2022-09-14T18:29:21.353Z,98963.00
2022-09-14T18:31:52.558Z,98961.77
2022-09-14T18:34:21.906Z,98962.94
2022-09-14T18:36:51.971Z,98958.90
2022-09-14T18:39:20.652Z,98953.88
2022-09-14T18:41:56.724Z,98946.31
2022-09-14T18:44:25.015Z,98943.33
2022-09-14T18:46:53.467Z,98950.55
2022-09-14T18:49:22.008Z,98950.09
2022-09-14T18:51:50.765Z,98956.41
2022-09-14T18:54:19.204Z,98961.08
2022-09-14T18:56:48.157Z,98964.80
2022-09-14T18:59:16.531Z,98961.48
2022-09-14T19:01:45.035Z,98962.13
2022-09-14T19:04:15.626Z,98955.19
2022-09-14T19:06:44.636Z,98955.31
2022-09-14T19:09:13.241Z,98953.31
2022-09-14T19:11:42.177Z,98957.92
2022-09-14T19:14:12.685Z,98956.07
2022-09-14T19:16:42.132Z,98956.44
2022-09-14T19:19:14.046Z,98956.44
2022-09-14T19:21:44.421Z,98952.88
2022-09-14T19:24:16.040Z,98948.71
2022-09-14T19:26:48.041Z,98944.50
2022-09-14T19:29:23.943Z,98943.00
2022-09-14T19:31:53.482Z,98945.32
2022-09-14T19:34:24.950Z,98942.79
2022-09-14T19:36:54.802Z,98931.23
2022-09-14T19:39:25.727Z,98929.02
2022-09-14T19:41:54.079Z,98922.21
2022-09-14T19:44:23.260Z,98918.84
2022-09-14T19:46:52.035Z,98918.42
2022-09-14T19:49:24.833Z,98917.96
2022-09-14T19:51:54.009Z,98923.45
2022-09-14T19:54:22.887Z,98923.58
2022-09-14T19:56:51.815Z,98909.76
2022-09-14T19:59:20.251Z,98902.08
2022-09-14T20:01:49.316Z,98897.55
2022-09-14T20:04:18.448Z,98905.21
2022-09-14T20:06:48.252Z,98905.23
2022-09-14T20:09:21.689Z,98911.71
2022-09-14T20:11:52.679Z,98909.96
2022-09-14T20:14:25.353Z,98911.63
2022-09-14T20:16:58.363Z,98912.48
2022-09-14T20:19:29.588Z,98910.15
2022-09-14T20:21:58.337Z,98913.13
2022-09-14T20:24:31.033Z,98913.34
2022-09-14T20:27:02.182Z,98906.81
2022-09-14T20:29:35.306Z,98904.40
2022-09-14T20:32:05.514Z,98901.05
2022-09-14T20:34:34.552Z,98896.39
2022-09-14T20:37:03.083Z,98897.38
2022-09-14T20:39:31.664Z,98892.15
2022-09-14T20:42:00.025Z,98888.71
2022-09-14T20:44:28.299Z,98886.31
2022-09-14T20:46:56.746Z,98880.88
2022-09-14T20:49:25.133Z,98878.44
2022-09-14T20:51:54.472Z,98877.21
2022-09-14T20:54:23.570Z,98878.51
2022-09-14T20:56:52.185Z,98878.59
2022-09-14T20:59:22.379Z,98883.41
2022-09-14T21:01:52.964Z,98878.75
2022-09-14T21:04:25.924Z,98876.88
2022-09-14T21:06:56.049Z,98871.45
2022-09-14T21:09:25.959Z,98870.51
2022-09-14T21:11:54.633Z,98872.91
2022-09-14T21:14:23.575Z,98875.31
2022-09-14T21:16:56.732Z,98878.08
2022-09-14T21:19:28.581Z,98877.43
2022-09-14T21:21:57.171Z,98876.48
2022-09-14T21:24:26.240Z,98868.91
2022-09-14T21:26:56.419Z,98867.89
2022-09-14T21:29:24.827Z,98867.11
2022-09-14T21:31:53.322Z,98861.77
2022-09-14T21:34:22.224Z,98858.43
2022-09-14T21:36:51.753Z,98856.23
2022-09-14T21:39:25.715Z,98855.89
2022-09-14T21:41:59.228Z,98857.11
2022-09-14T21:44:37.842Z,98854.58
2022-09-14T21:47:06.419Z,98855.44
2022-09-14T21:49:34.651Z,98851.64
2022-09-14T21:52:04.018Z,98850.78
2022-09-14T21:54:32.436Z,98853.80
2022-09-14T21:57:00.688Z,98856.05
2022-09-14T21:59:29.006Z,98852.27
2022-09-14T22:01:57.479Z,98854.26
2022-09-14T22:04:26.875Z,98851.49
2022-09-14T22:06:57.149Z,98855.20
2022-09-14T22:09:28.849Z,98849.36
2022-09-14T22:11:57.901Z,98844.34
2022-09-14T22:14:29.398Z,98836.80
2022-09-14T22:16:57.992Z,98833.65
2022-09-14T22:19:31.844Z,98833.61
2022-09-14T22:22:01.097Z,98831.10
2022-09-14T22:24:37.847Z,98824.73
2022-09-14T22:27:11.460Z,98819.09
2022-09-14T22:29:41.088Z,98809.80
2022-09-14T22:32:11.962Z,98804.50
2022-09-14T22:34:48.846Z,98806.62
2022-09-14T22:37:17.891Z,98806.41
2022-09-14T22:39:47.048Z,98805.15
2022-09-14T22:42:15.482Z,98805.97
2022-09-14T22:44:43.766Z,98811.80
2022-09-14T22:47:12.723Z,98815.84
2022-09-14T22:49:40.982Z,98817.89
2022-09-14T22:52:09.211Z,98810.46
2022-09-14T22:54:37.566Z,98810.42
2022-09-14T22:57:06.174Z,98806.30
2022-09-14T22:59:34.427Z,98802.70
2022-09-14T23:02:02.877Z,98799.65
2022-09-14T23:04:31.886Z,98797.85
2022-09-14T23:07:04.249Z,98792.63
2022-09-14T23:09:32.545Z,98789.77
2022-09-14T23:12:01.041Z,98792.06
2022-09-14T23:14:29.542Z,98793.94
2022-09-14T23:16:57.854Z,98797.52
2022-09-14T23:19:26.283Z,98800.28
2022-09-14T23:21:54.722Z,98794.50
2022-09-14T23:24:23.223Z,98783.98
2022-09-14T23:26:51.523Z,98774.52
2022-09-14T23:29:19.780Z,98771.91
2022-09-14T23:31:48.187Z,98771.21
2022-09-14T23:34:16.831Z,98770.36
2022-09-14T23:36:45.183Z,98769.70
2022-09-14T23:39:13.631Z,98781.31
2022-09-14T23:41:42.036Z,98782.00
2022-09-14T23:44:12.810Z,98775.23
2022-09-14T23:46:41.156Z,98776.46
2022-09-14T23:49:12.611Z,98783.84
2022-09-14T23:51:42.464Z,98785.83
2022-09-14T23:54:11.246Z,98783.34
2022-09-14T23:56:39.649Z,98777.67
2022-09-14T23:59:12.808Z,98780.20
